sensor_id;sensor_type;location;lat;lon;timestamp;P1;durP1;ratioP1;P2;durP2;ratioP2
53714;SDS011;39608;55.630;37.864;2022-09-21T00:00:28;26.25;;;10.70;;
53714;SDS011;39608;55.630;37.864;2022-09-21T00:05:30;17.77;;;9.65;;
53714;SDS011;39608;55.630;37.864;2022-09-21T00:10:33;17.63;;;9.32;;
53714;SDS011;39608;55.630;37.864;2022-09-21T00:15:38;18.48;;;7.75;;
53714;SDS011;39608;55.630;37.864;2022-09-21T00:20:41;20.55;;;9.38;;
53714;SDS011;39608;55.630;37.864;2022-09-21T00:25:43;18.75;;;8.65;;
53714;SDS011;39608;55.630;37.864;2022-09-21T00:30:47;19.08;;;7.55;;
53714;SDS011;39608;55.630;37.864;2022-09-21T00:35:51;14.73;;;7.95;;
53714;SDS011;39608;55.630;37.864;2022-09-21T00:40:53;19.63;;;8.40;;
53714;SDS011;39608;55.630;37.864;2022-09-21T00:45:58;18.00;;;7.75;;
53714;SDS011;39608;55.630;37.864;2022-09-21T00:51:04;17.35;;;8.00;;
53714;SDS011;39608;55.630;37.864;2022-09-21T00:56:08;13.70;;;7.28;;
53714;SDS011;39608;55.630;37.864;2022-09-21T01:01:12;14.73;;;7.72;;
53714;SDS011;39608;55.630;37.864;2022-09-21T01:06:18;14.63;;;7.27;;
53714;SDS011;39608;55.630;37.864;2022-09-21T01:11:24;13.90;;;6.95;;
53714;SDS011;39608;55.630;37.864;2022-09-21T01:16:37;16.08;;;7.18;;
53714;SDS011;39608;55.630;37.864;2022-09-21T01:21:47;19.58;;;7.70;;
53714;SDS011;39608;55.630;37.864;2022-09-21T01:27:08;15.45;;;7.75;;
53714;SDS011;39608;55.630;37.864;2022-09-21T01:32:36;15.20;;;7.05;;
53714;SDS011;39608;55.630;37.864;2022-09-21T01:42:46;16.65;;;6.88;;
53714;SDS011;39608;55.630;37.864;2022-09-21T01:47:52;16.63;;;7.90;;
53714;SDS011;39608;55.630;37.864;2022-09-21T01:52:58;19.40;;;8.10;;
53714;SDS011;39608;55.630;37.864;2022-09-21T01:58:04;15.15;;;8.07;;
53714;SDS011;39608;55.630;37.864;2022-09-21T02:03:13;21.08;;;8.48;;
53714;SDS011;39608;55.630;37.864;2022-09-21T02:08:21;16.48;;;8.05;;
53714;SDS011;39608;55.630;37.864;2022-09-21T02:13:27;15.98;;;7.70;;
53714;SDS011;39608;55.630;37.864;2022-09-21T02:18:36;24.27;;;8.80;;
53714;SDS011;39608;55.630;37.864;2022-09-21T02:23:48;14.65;;;7.75;;
53714;SDS011;39608;55.630;37.864;2022-09-21T02:29:00;14.40;;;7.80;;
53714;SDS011;39608;55.630;37.864;2022-09-21T02:34:15;15.40;;;7.43;;
53714;SDS011;39608;55.630;37.864;2022-09-21T02:39:23;13.32;;;8.13;;
53714;SDS011;39608;55.630;37.864;2022-09-21T02:44:33;16.00;;;8.13;;
53714;SDS011;39608;55.630;37.864;2022-09-21T02:49:42;23.20;;;8.30;;
53714;SDS011;39608;55.630;37.864;2022-09-21T02:54:49;17.08;;;8.00;;
53714;SDS011;39608;55.630;37.864;2022-09-21T02:59:55;18.40;;;8.95;;
53714;SDS011;39608;55.630;37.864;2022-09-21T03:04:58;21.05;;;9.68;;
53714;SDS011;39608;55.630;37.864;2022-09-21T03:10:00;26.35;;;9.45;;
53714;SDS011;39608;55.630;37.864;2022-09-21T03:15:04;23.77;;;8.55;;
53714;SDS011;39608;55.630;37.864;2022-09-21T03:20:10;24.63;;;8.43;;
53714;SDS011;39608;55.630;37.864;2022-09-21T03:25:14;22.23;;;9.15;;
53714;SDS011;39608;55.630;37.864;2022-09-21T03:30:16;23.08;;;7.93;;
53714;SDS011;39608;55.630;37.864;2022-09-21T03:35:20;15.27;;;8.23;;
53714;SDS011;39608;55.630;37.864;2022-09-21T03:40:23;11.48;;;7.90;;
53714;SDS011;39608;55.630;37.864;2022-09-21T03:45:25;17.45;;;8.65;;
53714;SDS011;39608;55.630;37.864;2022-09-21T03:50:29;14.77;;;8.07;;
53714;SDS011;39608;55.630;37.864;2022-09-21T03:55:31;15.10;;;7.90;;
53714;SDS011;39608;55.630;37.864;2022-09-21T04:00:34;17.05;;;9.23;;
53714;SDS011;39608;55.630;37.864;2022-09-21T04:05:38;16.27;;;8.10;;
53714;SDS011;39608;55.630;37.864;2022-09-21T04:10:40;14.93;;;8.13;;
53714;SDS011;39608;55.630;37.864;2022-09-21T04:15:43;25.85;;;8.43;;
53714;SDS011;39608;55.630;37.864;2022-09-21T04:20:46;17.70;;;8.40;;
53714;SDS011;39608;55.630;37.864;2022-09-21T04:25:49;15.43;;;7.78;;
53714;SDS011;39608;55.630;37.864;2022-09-21T04:30:51;16.20;;;7.95;;
53714;SDS011;39608;55.630;37.864;2022-09-21T04:35:56;14.80;;;7.45;;
53714;SDS011;39608;55.630;37.864;2022-09-21T04:40:58;18.67;;;6.95;;
53714;SDS011;39608;55.630;37.864;2022-09-21T04:46:05;17.10;;;7.25;;
53714;SDS011;39608;55.630;37.864;2022-09-21T04:51:10;16.25;;;6.32;;
53714;SDS011;39608;55.630;37.864;2022-09-21T04:56:14;13.15;;;6.57;;
53714;SDS011;39608;55.630;37.864;2022-09-21T05:01:17;14.70;;;6.07;;
53714;SDS011;39608;55.630;37.864;2022-09-21T05:06:20;13.23;;;5.93;;
53714;SDS011;39608;55.630;37.864;2022-09-21T05:11:22;12.95;;;7.35;;
53714;SDS011;39608;55.630;37.864;2022-09-21T05:16:31;16.25;;;8.18;;
53714;SDS011;39608;55.630;37.864;2022-09-21T05:21:34;14.82;;;7.72;;
53714;SDS011;39608;55.630;37.864;2022-09-21T05:26:36;17.65;;;7.53;;
53714;SDS011;39608;55.630;37.864;2022-09-21T05:31:40;19.50;;;7.95;;
53714;SDS011;39608;55.630;37.864;2022-09-21T05:41:53;17.80;;;7.38;;
53714;SDS011;39608;55.630;37.864;2022-09-21T05:46:57;15.77;;;8.15;;
53714;SDS011;39608;55.630;37.864;2022-09-21T05:52:08;12.13;;;7.47;;
53714;SDS011;39608;55.630;37.864;2022-09-21T05:57:23;12.82;;;6.53;;
53714;SDS011;39608;55.630;37.864;2022-09-21T06:02:42;9.35;;;6.85;;
53714;SDS011;39608;55.630;37.864;2022-09-21T06:08:03;15.15;;;7.13;;
53714;SDS011;39608;55.630;37.864;2022-09-21T06:13:05;15.85;;;8.25;;
53714;SDS011;39608;55.630;37.864;2022-09-21T06:18:07;10.80;;;6.47;;
53714;SDS011;39608;55.630;37.864;2022-09-21T06:23:12;14.70;;;7.40;;
53714;SDS011;39608;55.630;37.864;2022-09-21T06:28:15;13.15;;;7.47;;
53714;SDS011;39608;55.630;37.864;2022-09-21T06:33:17;10.32;;;7.05;;
53714;SDS011;39608;55.630;37.864;2022-09-21T06:38:24;11.68;;;7.00;;
53714;SDS011;39608;55.630;37.864;2022-09-21T06:43:28;12.38;;;7.30;;
53714;SDS011;39608;55.630;37.864;2022-09-21T06:48:31;12.32;;;6.53;;
53714;SDS011;39608;55.630;37.864;2022-09-21T06:53:36;16.20;;;6.13;;
53714;SDS011;39608;55.630;37.864;2022-09-21T06:58:38;13.23;;;6.10;;
53714;SDS011;39608;55.630;37.864;2022-09-21T07:03:41;8.60;;;5.07;;
53714;SDS011;39608;55.630;37.864;2022-09-21T07:08:45;11.15;;;5.00;;
53714;SDS011;39608;55.630;37.864;2022-09-21T07:13:48;7.88;;;4.72;;
53714;SDS011;39608;55.630;37.864;2022-09-21T07:18:50;4.88;;;3.97;;
53714;SDS011;39608;55.630;37.864;2022-09-21T07:23:54;5.88;;;3.80;;
53714;SDS011;39608;55.630;37.864;2022-09-21T07:28:59;5.17;;;3.57;;
53714;SDS011;39608;55.630;37.864;2022-09-21T07:34:01;5.50;;;3.80;;
53714;SDS011;39608;55.630;37.864;2022-09-21T07:39:04;5.32;;;4.10;;
53714;SDS011;39608;55.630;37.864;2022-09-21T07:44:08;6.22;;;4.40;;
53714;SDS011;39608;55.630;37.864;2022-09-21T07:49:11;6.35;;;4.10;;
53714;SDS011;39608;55.630;37.864;2022-09-21T07:54:14;6.25;;;4.55;;
53714;SDS011;39608;55.630;37.864;2022-09-21T07:59:16;7.90;;;3.78;;
53714;SDS011;39608;55.630;37.864;2022-09-21T08:04:19;9.20;;;4.15;;
53714;SDS011;39608;55.630;37.864;2022-09-21T08:09:23;7.60;;;4.70;;
53714;SDS011;39608;55.630;37.864;2022-09-21T08:14:27;10.93;;;4.85;;
53714;SDS011;39608;55.630;37.864;2022-09-21T08:19:29;6.65;;;4.68;;
53714;SDS011;39608;55.630;37.864;2022-09-21T08:24:33;7.28;;;4.13;;
53714;SDS011;39608;55.630;37.864;2022-09-21T08:29:36;7.65;;;4.70;;
53714;SDS011;39608;55.630;37.864;2022-09-21T08:34:39;6.25;;;4.47;;
53714;SDS011;39608;55.630;37.864;2022-09-21T08:39:42;10.77;;;4.70;;
53714;SDS011;39608;55.630;37.864;2022-09-21T08:44:45;8.65;;;4.70;;
53714;SDS011;39608;55.630;37.864;2022-09-21T08:49:52;8.07;;;3.88;;
53714;SDS011;39608;55.630;37.864;2022-09-21T08:55:00;8.38;;;4.03;;
53714;SDS011;39608;55.630;37.864;2022-09-21T09:00:11;7.03;;;3.08;;
53714;SDS011;39608;55.630;37.864;2022-09-21T09:05:19;4.80;;;2.40;;
53714;SDS011;39608;55.630;37.864;2022-09-21T09:10:37;4.38;;;2.40;;
53714;SDS011;39608;55.630;37.864;2022-09-21T09:15:45;4.22;;;1.92;;
53714;SDS011;39608;55.630;37.864;2022-09-21T09:20:54;2.45;;;2.00;;
53714;SDS011;39608;55.630;37.864;2022-09-21T09:26:00;7.45;;;1.40;;
53714;SDS011;39608;55.630;37.864;2022-09-21T09:31:10;2.63;;;1.55;;
53714;SDS011;39608;55.630;37.864;2022-09-21T09:36:18;2.65;;;1.30;;
53714;SDS011;39608;55.630;37.864;2022-09-21T09:47:10;2.25;;;1.95;;
53714;SDS011;39608;55.630;37.864;2022-09-21T09:52:26;3.15;;;1.95;;
53714;SDS011;39608;55.630;37.864;2022-09-21T09:57:31;6.28;;;2.25;;
53714;SDS011;39608;55.630;37.864;2022-09-21T10:02:35;4.20;;;2.20;;
53714;SDS011;39608;55.630;37.864;2022-09-21T10:07:47;7.47;;;2.13;;
53714;SDS011;39608;55.630;37.864;2022-09-21T10:12:51;9.77;;;2.50;;
53714;SDS011;39608;55.630;37.864;2022-09-21T10:17:56;2.10;;;1.90;;
53714;SDS011;39608;55.630;37.864;2022-09-21T10:23:03;3.67;;;2.10;;
53714;SDS011;39608;55.630;37.864;2022-09-21T10:28:08;4.95;;;2.30;;
53714;SDS011;39608;55.630;37.864;2022-09-21T10:33:17;11.20;;;2.78;;
53714;SDS011;39608;55.630;37.864;2022-09-21T10:38:24;4.18;;;2.53;;
53714;SDS011;39608;55.630;37.864;2022-09-21T10:43:29;5.70;;;2.97;;
53714;SDS011;39608;55.630;37.864;2022-09-21T10:48:35;3.55;;;2.55;;
53714;SDS011;39608;55.630;37.864;2022-09-21T10:53:37;3.33;;;1.98;;
53714;SDS011;39608;55.630;37.864;2022-09-21T10:59:07;3.13;;;2.20;;
53714;SDS011;39608;55.630;37.864;2022-09-21T11:04:26;4.97;;;2.58;;
53714;SDS011;39608;55.630;37.864;2022-09-21T11:09:38;4.27;;;2.30;;
53714;SDS011;39608;55.630;37.864;2022-09-21T11:14:48;3.58;;;2.55;;
53714;SDS011;39608;55.630;37.864;2022-09-21T11:19:55;2.90;;;2.03;;
53714;SDS011;39608;55.630;37.864;2022-09-21T11:25:19;3.63;;;2.20;;
53714;SDS011;39608;55.630;37.864;2022-09-21T11:30:37;2.90;;;1.88;;
53714;SDS011;39608;55.630;37.864;2022-09-21T11:35:52;6.70;;;2.03;;
53714;SDS011;39608;55.630;37.864;2022-09-21T11:41:07;4.43;;;2.38;;
53714;SDS011;39608;55.630;37.864;2022-09-21T11:46:24;46.05;;;6.85;;
53714;SDS011;39608;55.630;37.864;2022-09-21T11:51:37;20.73;;;4.45;;
53714;SDS011;39608;55.630;37.864;2022-09-21T11:56:52;13.77;;;3.13;;
53714;SDS011;39608;55.630;37.864;2022-09-21T12:02:13;4.85;;;2.38;;
53714;SDS011;39608;55.630;37.864;2022-09-21T12:07:28;2.78;;;2.00;;
53714;SDS011;39608;55.630;37.864;2022-09-21T12:12:42;6.03;;;2.50;;
53714;SDS011;39608;55.630;37.864;2022-09-21T12:17:55;3.65;;;1.90;;
53714;SDS011;39608;55.630;37.864;2022-09-21T12:23:06;4.25;;;2.03;;
53714;SDS011;39608;55.630;37.864;2022-09-21T12:28:17;7.63;;;2.70;;
53714;SDS011;39608;55.630;37.864;2022-09-21T12:33:29;4.22;;;2.42;;
53714;SDS011;39608;55.630;37.864;2022-09-21T12:38:38;10.73;;;3.25;;
53714;SDS011;39608;55.630;37.864;2022-09-21T12:43:46;11.90;;;2.53;;
53714;SDS011;39608;55.630;37.864;2022-09-21T12:48:55;12.52;;;3.05;;
53714;SDS011;39608;55.630;37.864;2022-09-21T12:54:04;6.43;;;2.85;;
53714;SDS011;39608;55.630;37.864;2022-09-21T12:59:21;9.82;;;2.25;;
53714;SDS011;39608;55.630;37.864;2022-09-21T13:04:38;4.97;;;2.22;;
53714;SDS011;39608;55.630;37.864;2022-09-21T13:09:49;5.47;;;2.50;;
53714;SDS011;39608;55.630;37.864;2022-09-21T13:14:53;13.07;;;3.22;;
53714;SDS011;39608;55.630;37.864;2022-09-21T13:20:02;8.68;;;2.63;;
53714;SDS011;39608;55.630;37.864;2022-09-21T13:25:06;18.02;;;2.65;;
53714;SDS011;39608;55.630;37.864;2022-09-21T13:30:27;7.03;;;2.35;;
53714;SDS011;39608;55.630;37.864;2022-09-21T13:35:50;5.63;;;2.38;;
53714;SDS011;39608;55.630;37.864;2022-09-21T13:41:01;3.72;;;2.45;;
53714;SDS011;39608;55.630;37.864;2022-09-21T13:46:05;2.83;;;2.30;;
53714;SDS011;39608;55.630;37.864;2022-09-21T13:51:08;8.25;;;3.17;;
53714;SDS011;39608;55.630;37.864;2022-09-21T13:56:15;6.32;;;2.80;;
53714;SDS011;39608;55.630;37.864;2022-09-21T14:01:20;9.45;;;3.15;;
53714;SDS011;39608;55.630;37.864;2022-09-21T14:06:25;3.78;;;2.55;;
53714;SDS011;39608;55.630;37.864;2022-09-21T14:11:34;5.38;;;2.50;;
53714;SDS011;39608;55.630;37.864;2022-09-21T14:16:49;4.95;;;2.47;;
53714;SDS011;39608;55.630;37.864;2022-09-21T14:27:37;3.92;;;2.78;;
53714;SDS011;39608;55.630;37.864;2022-09-21T14:32:43;7.97;;;2.80;;
53714;SDS011;39608;55.630;37.864;2022-09-21T14:37:51;7.93;;;3.13;;
53714;SDS011;39608;55.630;37.864;2022-09-21T14:48:02;7.28;;;3.08;;
53714;SDS011;39608;55.630;37.864;2022-09-21T14:58:52;5.82;;;2.60;;
53714;SDS011;39608;55.630;37.864;2022-09-21T15:04:11;5.20;;;3.25;;
53714;SDS011;39608;55.630;37.864;2022-09-21T15:09:48;7.72;;;4.50;;
53714;SDS011;39608;55.630;37.864;2022-09-21T15:15:32;8.98;;;3.92;;
53714;SDS011;39608;55.630;37.864;2022-09-21T15:20:39;5.95;;;3.45;;
53714;SDS011;39608;55.630;37.864;2022-09-21T15:25:44;6.32;;;3.80;;
53714;SDS011;39608;55.630;37.864;2022-09-21T15:30:58;7.15;;;3.90;;
53714;SDS011;39608;55.630;37.864;2022-09-21T15:36:00;5.28;;;3.78;;
53714;SDS011;39608;55.630;37.864;2022-09-21T15:41:04;6.05;;;4.35;;
53714;SDS011;39608;55.630;37.864;2022-09-21T15:46:08;10.55;;;4.38;;
53714;SDS011;39608;55.630;37.864;2022-09-21T15:51:13;9.60;;;4.78;;
53714;SDS011;39608;55.630;37.864;2022-09-21T15:56:25;7.07;;;5.15;;
53714;SDS011;39608;55.630;37.864;2022-09-21T16:01:29;6.30;;;4.65;;
53714;SDS011;39608;55.630;37.864;2022-09-21T16:06:34;12.95;;;3.63;;
53714;SDS011;39608;55.630;37.864;2022-09-21T16:11:39;10.70;;;4.07;;
53714;SDS011;39608;55.630;37.864;2022-09-21T16:22:08;9.30;;;5.32;;
53714;SDS011;39608;55.630;37.864;2022-09-21T16:27:16;7.82;;;5.05;;
53714;SDS011;39608;55.630;37.864;2022-09-21T16:32:26;7.95;;;5.03;;
53714;SDS011;39608;55.630;37.864;2022-09-21T16:37:31;7.25;;;4.63;;
53714;SDS011;39608;55.630;37.864;2022-09-21T16:42:34;10.35;;;5.05;;
53714;SDS011;39608;55.630;37.864;2022-09-21T16:47:37;5.18;;;3.70;;
53714;SDS011;39608;55.630;37.864;2022-09-21T16:52:39;4.60;;;2.83;;
53714;SDS011;39608;55.630;37.864;2022-09-21T16:57:46;2.33;;;1.40;;
53714;SDS011;39608;55.630;37.864;2022-09-21T17:02:48;1.10;;;1.00;;
53714;SDS011;39608;55.630;37.864;2022-09-21T17:07:52;3.05;;;0.63;;
53714;SDS011;39608;55.630;37.864;2022-09-21T17:12:58;0.80;;;0.60;;
53714;SDS011;39608;55.630;37.864;2022-09-21T17:18:00;0.80;;;0.80;;
53714;SDS011;39608;55.630;37.864;2022-09-21T17:23:02;1.50;;;0.90;;
53714;SDS011;39608;55.630;37.864;2022-09-21T17:28:11;3.47;;;1.20;;
53714;SDS011;39608;55.630;37.864;2022-09-21T17:33:14;2.00;;;1.33;;
53714;SDS011;39608;55.630;37.864;2022-09-21T17:38:19;2.13;;;1.38;;
53714;SDS011;39608;55.630;37.864;2022-09-21T17:43:28;1.90;;;1.10;;
53714;SDS011;39608;55.630;37.864;2022-09-21T17:48:37;2.65;;;1.70;;
53714;SDS011;39608;55.630;37.864;2022-09-21T17:53:41;5.25;;;1.80;;
53714;SDS011;39608;55.630;37.864;2022-09-21T17:58:46;2.90;;;1.63;;
53714;SDS011;39608;55.630;37.864;2022-09-21T18:03:52;3.10;;;1.50;;
53714;SDS011;39608;55.630;37.864;2022-09-21T18:08:57;4.53;;;2.08;;
53714;SDS011;39608;55.630;37.864;2022-09-21T18:14:05;3.33;;;2.17;;
53714;SDS011;39608;55.630;37.864;2022-09-21T18:19:21;4.43;;;2.53;;
53714;SDS011;39608;55.630;37.864;2022-09-21T18:24:31;5.65;;;2.08;;
53714;SDS011;39608;55.630;37.864;2022-09-21T18:29:35;4.05;;;2.20;;
53714;SDS011;39608;55.630;37.864;2022-09-21T18:34:43;3.38;;;2.50;;
53714;SDS011;39608;55.630;37.864;2022-09-21T18:39:56;5.60;;;2.38;;
53714;SDS011;39608;55.630;37.864;2022-09-21T18:45:11;6.82;;;2.88;;
53714;SDS011;39608;55.630;37.864;2022-09-21T18:50:18;4.93;;;2.90;;
53714;SDS011;39608;55.630;37.864;2022-09-21T18:55:28;6.45;;;3.05;;
53714;SDS011;39608;55.630;37.864;2022-09-21T19:00:35;5.60;;;3.05;;
53714;SDS011;39608;55.630;37.864;2022-09-21T19:05:38;4.80;;;3.63;;
53714;SDS011;39608;55.630;37.864;2022-09-21T19:10:43;4.20;;;3.30;;
53714;SDS011;39608;55.630;37.864;2022-09-21T19:15:53;7.53;;;4.13;;
53714;SDS011;39608;55.630;37.864;2022-09-21T19:21:08;5.05;;;3.75;;
53714;SDS011;39608;55.630;37.864;2022-09-21T19:26:19;7.43;;;4.15;;
53714;SDS011;39608;55.630;37.864;2022-09-21T19:31:29;4.75;;;3.88;;
53714;SDS011;39608;55.630;37.864;2022-09-21T19:36:32;5.57;;;3.05;;
53714;SDS011;39608;55.630;37.864;2022-09-21T19:41:37;3.13;;;2.67;;
53714;SDS011;39608;55.630;37.864;2022-09-21T19:46:52;4.97;;;2.72;;
53714;SDS011;39608;55.630;37.864;2022-09-21T19:52:01;3.50;;;2.35;;
53714;SDS011;39608;55.630;37.864;2022-09-21T19:57:06;5.30;;;3.00;;
53714;SDS011;39608;55.630;37.864;2022-09-21T20:02:33;3.35;;;2.40;;
53714;SDS011;39608;55.630;37.864;2022-09-21T20:07:42;2.83;;;2.50;;
53714;SDS011;39608;55.630;37.864;2022-09-21T20:12:51;3.83;;;3.10;;
53714;SDS011;39608;55.630;37.864;2022-09-21T20:18:02;4.80;;;2.97;;
53714;SDS011;39608;55.630;37.864;2022-09-21T20:23:11;5.30;;;3.35;;
53714;SDS011;39608;55.630;37.864;2022-09-21T20:28:14;4.25;;;3.10;;
53714;SDS011;39608;55.630;37.864;2022-09-21T20:33:18;3.85;;;3.38;;
53714;SDS011;39608;55.630;37.864;2022-09-21T20:38:22;3.67;;;2.65;;
53714;SDS011;39608;55.630;37.864;2022-09-21T20:43:24;4.95;;;2.80;;
53714;SDS011;39608;55.630;37.864;2022-09-21T20:48:28;5.63;;;2.67;;
53714;SDS011;39608;55.630;37.864;2022-09-21T20:53:31;3.30;;;2.80;;
53714;SDS011;39608;55.630;37.864;2022-09-21T20:58:36;2.83;;;2.63;;
53714;SDS011;39608;55.630;37.864;2022-09-21T21:03:40;3.72;;;2.70;;
53714;SDS011;39608;55.630;37.864;2022-09-21T21:08:42;3.55;;;2.35;;
53714;SDS011;39608;55.630;37.864;2022-09-21T21:13:45;4.05;;;2.67;;
53714;SDS011;39608;55.630;37.864;2022-09-21T21:18:48;3.25;;;2.85;;
53714;SDS011;39608;55.630;37.864;2022-09-21T21:23:50;3.30;;;2.97;;
53714;SDS011;39608;55.630;37.864;2022-09-21T21:29:10;3.80;;;2.88;;
53714;SDS011;39608;55.630;37.864;2022-09-21T21:34:13;4.28;;;2.60;;
53714;SDS011;39608;55.630;37.864;2022-09-21T21:39:16;3.95;;;2.63;;
53714;SDS011;39608;55.630;37.864;2022-09-21T21:44:18;3.58;;;2.70;;
53714;SDS011;39608;55.630;37.864;2022-09-21T21:49:21;5.20;;;3.00;;
53714;SDS011;39608;55.630;37.864;2022-09-21T21:54:24;4.28;;;2.90;;
53714;SDS011;39608;55.630;37.864;2022-09-21T21:59:26;3.35;;;3.05;;
53714;SDS011;39608;55.630;37.864;2022-09-21T22:04:31;5.80;;;3.13;;
53714;SDS011;39608;55.630;37.864;2022-09-21T22:09:33;3.55;;;3.25;;
53714;SDS011;39608;55.630;37.864;2022-09-21T22:14:35;4.43;;;3.15;;
53714;SDS011;39608;55.630;37.864;2022-09-21T22:19:39;4.28;;;3.85;;
53714;SDS011;39608;55.630;37.864;2022-09-21T22:24:41;3.60;;;3.30;;
53714;SDS011;39608;55.630;37.864;2022-09-21T22:29:43;3.55;;;2.90;;
53714;SDS011;39608;55.630;37.864;2022-09-21T22:34:47;3.88;;;3.08;;
53714;SDS011;39608;55.630;37.864;2022-09-21T22:39:49;3.05;;;2.72;;
53714;SDS011;39608;55.630;37.864;2022-09-21T22:44:52;3.33;;;2.63;;
53714;SDS011;39608;55.630;37.864;2022-09-21T22:49:55;3.47;;;3.08;;
53714;SDS011;39608;55.630;37.864;2022-09-21T22:54:58;4.00;;;3.60;;
53714;SDS011;39608;55.630;37.864;2022-09-21T23:00:00;4.57;;;4.18;;
53714;SDS011;39608;55.630;37.864;2022-09-21T23:05:05;8.88;;;5.15;;
53714;SDS011;39608;55.630;37.864;2022-09-21T23:10:08;6.22;;;5.60;;
53714;SDS011;39608;55.630;37.864;2022-09-21T23:15:11;6.95;;;6.18;;
53714;SDS011;39608;55.630;37.864;2022-09-21T23:20:16;8.55;;;7.75;;
53714;SDS011;39608;55.630;37.864;2022-09-21T23:25:18;10.43;;;7.53;;
53714;SDS011;39608;55.630;37.864;2022-09-21T23:30:20;8.45;;;7.65;;
53714;SDS011;39608;55.630;37.864;2022-09-21T23:35:23;11.05;;;9.95;;
53714;SDS011;39608;55.630;37.864;2022-09-21T23:40:25;11.32;;;10.13;;
53714;SDS011;39608;55.630;37.864;2022-09-21T23:45:27;12.13;;;9.57;;
53714;SDS011;39608;55.630;37.864;2022-09-21T23:50:31;8.93;;;8.13;;
53714;SDS011;39608;55.630;37.864;2022-09-21T23:55:33;8.70;;;7.82;;
